createdAt,value
2019-06-15T00:03:37.198Z,14
2019-06-15T00:13:40.585Z,15
2019-06-15T00:23:48.701Z,14
2019-06-15T00:33:53.632Z,15
2019-06-15T00:43:58.851Z,16
2019-06-15T00:54:03.976Z,14
2019-06-15T01:04:08.355Z,12
2019-06-15T01:14:14.397Z,13
2019-06-15T01:24:20.646Z,14
2019-06-15T01:34:26.195Z,15
2019-06-15T01:44:31.296Z,14
2019-06-15T01:54:35.147Z,16
2019-06-15T02:04:40.634Z,18
2019-06-15T02:14:48.510Z,16
2019-06-15T02:24:54.078Z,12
2019-06-15T02:34:59.528Z,15
2019-06-15T02:45:04.662Z,16
2019-06-15T02:55:10.000Z,18
2019-06-15T03:05:16.291Z,14
2019-06-15T03:15:21.507Z,13
2019-06-15T03:25:26.728Z,14
2019-06-15T03:35:33.149Z,12
2019-06-15T03:45:38.293Z,10
2019-06-15T03:55:43.551Z,11
2019-06-15T04:05:49.563Z,10
2019-06-15T04:15:53.555Z,12
2019-06-15T04:25:58.282Z,9
2019-06-15T04:36:03.585Z,10
2019-06-15T04:46:07.365Z,10
2019-06-15T04:56:14.018Z,9
2019-06-15T05:06:18.914Z,8
2019-06-15T05:16:24.224Z,11
2019-06-15T05:26:29.700Z,7
2019-06-15T05:36:35.147Z,12
2019-06-15T05:56:44.041Z,13
2019-06-15T06:16:55.773Z,24
2019-06-15T06:27:01.163Z,31
2019-06-15T06:47:10.141Z,11
2019-06-15T07:47:46.858Z,4
2019-06-15T07:57:52.180Z,6
2019-06-15T08:07:58.851Z,7
2019-06-15T08:18:05.139Z,6
2019-06-15T08:28:11.281Z,6
2019-06-15T08:38:16.310Z,5
2019-06-15T08:48:22.506Z,7
2019-06-15T08:58:28.233Z,8
2019-06-15T09:08:33.555Z,6
2019-06-15T09:18:39.408Z,4
2019-06-15T09:28:46.224Z,7
2019-06-15T09:38:50.755Z,7
2019-06-15T09:48:58.572Z,6
2019-06-15T09:59:05.904Z,7
2019-06-15T10:09:11.746Z,5
2019-06-15T10:19:20.487Z,6
2019-06-15T10:29:24.878Z,6
2019-06-15T10:39:32.033Z,9
2019-06-15T10:49:42.183Z,5
2019-06-15T10:59:56.699Z,5
2019-06-15T11:09:50.686Z,5
2019-06-15T11:19:56.598Z,5
2019-06-15T11:30:12.797Z,5
2019-06-15T11:40:07.196Z,4
2019-06-15T11:50:13.769Z,4
2019-06-15T12:00:30.646Z,7
2019-06-15T12:10:27.602Z,5
2019-06-15T12:20:33.321Z,5
2019-06-15T12:30:46.488Z,5
2019-06-15T12:40:46.359Z,4
2019-06-15T12:50:52.896Z,9
2019-06-15T13:01:02.680Z,6
2019-06-15T18:44:13.188Z,17
2019-06-15T19:04:30.141Z,11
2019-06-15T19:14:32.244Z,9
2019-06-15T19:24:37.792Z,14
2019-06-15T19:44:47.654Z,9
2019-06-15T19:54:56.940Z,10
2019-06-15T20:05:03.907Z,8
2019-06-15T20:15:07.168Z,13
2019-06-15T20:25:16.012Z,10
2019-06-15T20:35:21.313Z,8
2019-06-15T20:45:27.427Z,11
2019-06-15T20:55:32.957Z,8
2019-06-15T21:05:41.699Z,9
2019-06-15T21:15:43.227Z,7
2019-06-15T21:25:48.229Z,7
2019-06-15T21:35:53.808Z,8
2019-06-15T21:45:58.955Z,2
2019-06-15T21:56:07.735Z,4
2019-06-15T22:06:13.482Z,3
2019-06-15T22:16:17.168Z,2
2019-06-15T22:26:22.544Z,5
2019-06-15T22:36:28.823Z,3
2019-06-15T22:46:38.242Z,2
2019-06-15T22:56:39.619Z,3
2019-06-15T23:07:06.530Z,2
2019-06-15T23:16:59.300Z,3
2019-06-15T23:27:16.418Z,3
2019-06-15T23:37:31.316Z,5
2019-06-15T23:47:32.515Z,3
2019-06-15T23:57:32.869Z,4
